sensor_id;sensor_type;location;lat;lon;timestamp;P1;durP1;ratioP1;P2;durP2;ratioP2
78372;SDS011;67656;52.074;4.758;2024-01-15T00:04:28;4.73;;;0.60;;
78372;SDS011;67656;52.074;4.758;2024-01-15T00:09:28;13.87;;;0.83;;
78372;SDS011;67656;52.074;4.758;2024-01-15T00:14:29;3.53;;;0.70;;
78372;SDS011;67656;52.074;4.758;2024-01-15T00:19:29;4.70;;;0.67;;
78372;SDS011;67656;52.074;4.758;2024-01-15T00:24:30;5.47;;;0.53;;
78372;SDS011;67656;52.074;4.758;2024-01-15T00:29:30;7.23;;;0.60;;
78372;SDS011;67656;52.074;4.758;2024-01-15T00:34:31;6.00;;;1.00;;
78372;SDS011;67656;52.074;4.758;2024-01-15T00:39:32;5.30;;;0.60;;
78372;SDS011;67656;52.074;4.758;2024-01-15T00:44:32;5.23;;;0.50;;
78372;SDS011;67656;52.074;4.758;2024-01-15T00:49:33;4.17;;;0.70;;
78372;SDS011;67656;52.074;4.758;2024-01-15T00:54:33;3.20;;;0.40;;
78372;SDS011;67656;52.074;4.758;2024-01-15T00:59:34;3.50;;;0.50;;
78372;SDS011;67656;52.074;4.758;2024-01-15T01:04:34;2.77;;;0.33;;
78372;SDS011;67656;52.074;4.758;2024-01-15T01:09:34;4.80;;;0.40;;
78372;SDS011;67656;52.074;4.758;2024-01-15T01:14:35;5.73;;;0.57;;
78372;SDS011;67656;52.074;4.758;2024-01-15T01:19:35;6.00;;;0.57;;
78372;SDS011;67656;52.074;4.758;2024-01-15T01:24:35;5.80;;;0.70;;
78372;SDS011;67656;52.074;4.758;2024-01-15T01:29:36;8.03;;;0.80;;
78372;SDS011;67656;52.074;4.758;2024-01-15T01:34:39;8.13;;;0.70;;
78372;SDS011;67656;52.074;4.758;2024-01-15T01:39:41;3.92;;;0.47;;
78372;SDS011;67656;52.074;4.758;2024-01-15T01:44:42;3.83;;;0.80;;
78372;SDS011;67656;52.074;4.758;2024-01-15T01:49:43;6.50;;;0.67;;
78372;SDS011;67656;52.074;4.758;2024-01-15T01:54:44;4.80;;;0.47;;
78372;SDS011;67656;52.074;4.758;2024-01-15T01:59:44;4.47;;;0.67;;
78372;SDS011;67656;52.074;4.758;2024-01-15T02:04:46;5.17;;;0.50;;
78372;SDS011;67656;52.074;4.758;2024-01-15T02:09:47;0.90;;;0.30;;
78372;SDS011;67656;52.074;4.758;2024-01-15T02:14:47;5.60;;;0.57;;
78372;SDS011;67656;52.074;4.758;2024-01-15T02:19:49;1.33;;;0.10;;
78372;SDS011;67656;52.074;4.758;2024-01-15T02:24:49;7.60;;;0.50;;
78372;SDS011;67656;52.074;4.758;2024-01-15T02:29:50;0.40;;;0.20;;
78372;SDS011;67656;52.074;4.758;2024-01-15T02:34:51;2.27;;;0.33;;
78372;SDS011;67656;52.074;4.758;2024-01-15T02:39:51;1.80;;;0.50;;
78372;SDS011;67656;52.074;4.758;2024-01-15T02:44:51;3.00;;;0.30;;
78372;SDS011;67656;52.074;4.758;2024-01-15T02:49:52;1.13;;;0.10;;
78372;SDS011;67656;52.074;4.758;2024-01-15T02:54:52;4.30;;;0.60;;
78372;SDS011;67656;52.074;4.758;2024-01-15T02:59:52;4.10;;;0.20;;
78372;SDS011;67656;52.074;4.758;2024-01-15T03:04:53;3.50;;;0.40;;
78372;SDS011;67656;52.074;4.758;2024-01-15T03:09:53;8.37;;;0.53;;
78372;SDS011;67656;52.074;4.758;2024-01-15T03:14:53;1.30;;;0.10;;
78372;SDS011;67656;52.074;4.758;2024-01-15T03:19:54;0.73;;;0.23;;
78372;SDS011;67656;52.074;4.758;2024-01-15T03:24:54;5.40;;;0.40;;
78372;SDS011;67656;52.074;4.758;2024-01-15T03:29:54;10.27;;;0.50;;
78372;SDS011;67656;52.074;4.758;2024-01-15T03:34:55;4.43;;;0.40;;
78372;SDS011;67656;52.074;4.758;2024-01-15T03:39:55;3.13;;;0.40;;
78372;SDS011;67656;52.074;4.758;2024-01-15T03:44:56;6.57;;;0.50;;
78372;SDS011;67656;52.074;4.758;2024-01-15T03:49:56;5.50;;;0.70;;
78372;SDS011;67656;52.074;4.758;2024-01-15T03:54:56;4.87;;;0.40;;
78372;SDS011;67656;52.074;4.758;2024-01-15T03:59:57;2.80;;;0.27;;
78372;SDS011;67656;52.074;4.758;2024-01-15T04:04:57;6.43;;;0.27;;
78372;SDS011;67656;52.074;4.758;2024-01-15T04:09:58;1.53;;;0.23;;
78372;SDS011;67656;52.074;4.758;2024-01-15T04:14:58;0.67;;;0.10;;
78372;SDS011;67656;52.074;4.758;2024-01-15T04:19:58;4.13;;;0.40;;
78372;SDS011;67656;52.074;4.758;2024-01-15T04:24:59;2.20;;;0.20;;
78372;SDS011;67656;52.074;4.758;2024-01-15T04:29:59;1.50;;;0.20;;
78372;SDS011;67656;52.074;4.758;2024-01-15T04:35:00;0.93;;;0.10;;
78372;SDS011;67656;52.074;4.758;2024-01-15T04:40:00;0.83;;;0.20;;
78372;SDS011;67656;52.074;4.758;2024-01-15T04:45:02;3.00;;;0.37;;
78372;SDS011;67656;52.074;4.758;2024-01-15T04:50:04;0.70;;;0.27;;
78372;SDS011;67656;52.074;4.758;2024-01-15T04:55:05;6.50;;;0.57;;
78372;SDS011;67656;52.074;4.758;2024-01-15T05:00:05;1.80;;;0.30;;
78372;SDS011;67656;52.074;4.758;2024-01-15T05:05:06;1.93;;;0.30;;
78372;SDS011;67656;52.074;4.758;2024-01-15T05:10:07;1.50;;;0.20;;
78372;SDS011;67656;52.074;4.758;2024-01-15T05:15:07;2.10;;;0.30;;
78372;SDS011;67656;52.074;4.758;2024-01-15T05:20:07;8.40;;;0.37;;
78372;SDS011;67656;52.074;4.758;2024-01-15T05:25:08;2.20;;;0.30;;
78372;SDS011;67656;52.074;4.758;2024-01-15T05:30:09;2.50;;;0.37;;
78372;SDS011;67656;52.074;4.758;2024-01-15T05:35:10;4.07;;;0.57;;
78372;SDS011;67656;52.074;4.758;2024-01-15T05:40:11;2.57;;;0.50;;
78372;SDS011;67656;52.074;4.758;2024-01-15T05:45:12;0.33;;;0.10;;
78372;SDS011;67656;52.074;4.758;2024-01-15T05:50:12;1.53;;;0.20;;
78372;SDS011;67656;52.074;4.758;2024-01-15T05:55:13;3.20;;;0.30;;
78372;SDS011;67656;52.074;4.758;2024-01-15T06:00:13;4.80;;;0.47;;
78372;SDS011;67656;52.074;4.758;2024-01-15T06:05:14;2.07;;;0.30;;
78372;SDS011;67656;52.074;4.758;2024-01-15T06:10:14;1.37;;;0.30;;
78372;SDS011;67656;52.074;4.758;2024-01-15T06:15:15;1.43;;;0.40;;
78372;SDS011;67656;52.074;4.758;2024-01-15T06:20:15;2.63;;;0.87;;
78372;SDS011;67656;52.074;4.758;2024-01-15T06:25:16;10.17;;;5.07;;
78372;SDS011;67656;52.074;4.758;2024-01-15T06:30:16;13.87;;;5.23;;
78372;SDS011;67656;52.074;4.758;2024-01-15T06:35:16;13.73;;;6.87;;
78372;SDS011;67656;52.074;4.758;2024-01-15T06:40:17;7.60;;;1.47;;
78372;SDS011;67656;52.074;4.758;2024-01-15T06:45:17;3.37;;;0.80;;
78372;SDS011;67656;52.074;4.758;2024-01-15T06:50:17;0.80;;;0.67;;
78372;SDS011;67656;52.074;4.758;2024-01-15T06:55:18;5.80;;;0.67;;
78372;SDS011;67656;52.074;4.758;2024-01-15T07:00:18;2.40;;;0.40;;
78372;SDS011;67656;52.074;4.758;2024-01-15T07:05:20;1.10;;;0.20;;
78372;SDS011;67656;52.074;4.758;2024-01-15T07:10:21;0.17;;;0.03;;
78372;SDS011;67656;52.074;4.758;2024-01-15T07:15:21;2.17;;;0.43;;
78372;SDS011;67656;52.074;4.758;2024-01-15T07:20:21;2.43;;;0.50;;
78372;SDS011;67656;52.074;4.758;2024-01-15T07:25:22;4.40;;;1.10;;
78372;SDS011;67656;52.074;4.758;2024-01-15T07:30:23;5.67;;;2.13;;
78372;SDS011;67656;52.074;4.758;2024-01-15T07:35:23;4.20;;;0.73;;
78372;SDS011;67656;52.074;4.758;2024-01-15T07:40:26;3.93;;;0.50;;
78372;SDS011;67656;52.074;4.758;2024-01-15T07:45:26;2.50;;;1.13;;
78372;SDS011;67656;52.074;4.758;2024-01-15T07:50:27;7.37;;;1.80;;
78372;SDS011;67656;52.074;4.758;2024-01-15T07:55:27;4.67;;;0.90;;
78372;SDS011;67656;52.074;4.758;2024-01-15T08:00:27;3.73;;;0.70;;
78372;SDS011;67656;52.074;4.758;2024-01-15T08:05:36;2.47;;;0.33;;
78372;SDS011;67656;52.074;4.758;2024-01-15T08:10:36;1.70;;;0.50;;
78372;SDS011;67656;52.074;4.758;2024-01-15T08:15:37;2.43;;;0.70;;
78372;SDS011;67656;52.074;4.758;2024-01-15T08:20:37;7.33;;;1.57;;
78372;SDS011;67656;52.074;4.758;2024-01-15T08:25:38;1.00;;;0.70;;
78372;SDS011;67656;52.074;4.758;2024-01-15T08:30:38;6.10;;;0.90;;
78372;SDS011;67656;52.074;4.758;2024-01-15T08:35:39;6.03;;;0.70;;
78372;SDS011;67656;52.074;4.758;2024-01-15T08:40:39;3.83;;;0.90;;
78372;SDS011;67656;52.074;4.758;2024-01-15T08:45:40;6.93;;;1.10;;
78372;SDS011;67656;52.074;4.758;2024-01-15T08:50:40;10.93;;;2.10;;
78372;SDS011;67656;52.074;4.758;2024-01-15T08:55:40;6.50;;;0.90;;
78372;SDS011;67656;52.074;4.758;2024-01-15T09:00:41;4.97;;;0.70;;
78372;SDS011;67656;52.074;4.758;2024-01-15T09:05:41;3.30;;;0.50;;
78372;SDS011;67656;52.074;4.758;2024-01-15T09:10:42;2.10;;;0.30;;
78372;SDS011;67656;52.074;4.758;2024-01-15T09:15:47;2.53;;;0.40;;
78372;SDS011;67656;52.074;4.758;2024-01-15T09:20:48;0.97;;;0.40;;
78372;SDS011;67656;52.074;4.758;2024-01-15T09:25:48;4.03;;;0.60;;
78372;SDS011;67656;52.074;4.758;2024-01-15T09:30:49;1.17;;;0.33;;
78372;SDS011;67656;52.074;4.758;2024-01-15T09:35:49;5.93;;;0.40;;
78372;SDS011;67656;52.074;4.758;2024-01-15T09:40:50;3.97;;;0.60;;
78372;SDS011;67656;52.074;4.758;2024-01-15T09:45:50;1.97;;;0.60;;
78372;SDS011;67656;52.074;4.758;2024-01-15T09:50:52;5.13;;;0.57;;
78372;SDS011;67656;52.074;4.758;2024-01-15T09:55:53;2.63;;;0.53;;
78372;SDS011;67656;52.074;4.758;2024-01-15T10:00:54;2.93;;;0.80;;
78372;SDS011;67656;52.074;4.758;2024-01-15T10:05:56;1.17;;;0.23;;
78372;SDS011;67656;52.074;4.758;2024-01-15T10:11:06;7.07;;;0.60;;
78372;SDS011;67656;52.074;4.758;2024-01-15T10:16:10;2.13;;;0.47;;
78372;SDS011;67656;52.074;4.758;2024-01-15T10:21:13;3.60;;;0.67;;
78372;SDS011;67656;52.074;4.758;2024-01-15T10:26:14;3.30;;;0.60;;
78372;SDS011;67656;52.074;4.758;2024-01-15T10:31:17;4.70;;;0.57;;
78372;SDS011;67656;52.074;4.758;2024-01-15T10:36:18;3.35;;;0.50;;
78372;SDS011;67656;52.074;4.758;2024-01-15T10:41:21;2.10;;;0.20;;
78372;SDS011;67656;52.074;4.758;2024-01-15T10:46:22;0.40;;;0.20;;
78372;SDS011;67656;52.074;4.758;2024-01-15T10:51:23;0.63;;;0.33;;
78372;SDS011;67656;52.074;4.758;2024-01-15T10:56:23;1.73;;;0.63;;
78372;SDS011;67656;52.074;4.758;2024-01-15T11:01:28;1.57;;;0.40;;
78372;SDS011;67656;52.074;4.758;2024-01-15T11:06:29;2.93;;;0.30;;
78372;SDS011;67656;52.074;4.758;2024-01-15T11:11:45;2.63;;;0.50;;
78372;SDS011;67656;52.074;4.758;2024-01-15T11:16:57;1.10;;;0.30;;
78372;SDS011;67656;52.074;4.758;2024-01-15T11:22:04;4.47;;;0.53;;
78372;SDS011;67656;52.074;4.758;2024-01-15T11:27:04;2.00;;;0.40;;
78372;SDS011;67656;52.074;4.758;2024-01-15T11:32:09;2.57;;;0.40;;
78372;SDS011;67656;52.074;4.758;2024-01-15T11:37:09;2.57;;;0.33;;
78372;SDS011;67656;52.074;4.758;2024-01-15T11:42:11;4.30;;;0.60;;
78372;SDS011;67656;52.074;4.758;2024-01-15T11:47:12;5.47;;;0.97;;
78372;SDS011;67656;52.074;4.758;2024-01-15T11:52:12;3.50;;;0.60;;
78372;SDS011;67656;52.074;4.758;2024-01-15T12:02:22;1.85;;;0.43;;
78372;SDS011;67656;52.074;4.758;2024-01-15T12:07:22;6.93;;;0.70;;
78372;SDS011;67656;52.074;4.758;2024-01-15T12:12:35;2.90;;;0.40;;
78372;SDS011;67656;52.074;4.758;2024-01-15T12:17:46;3.67;;;0.30;;
78372;SDS011;67656;52.074;4.758;2024-01-15T12:22:47;1.10;;;0.40;;
78372;SDS011;67656;52.074;4.758;2024-01-15T12:27:48;4.57;;;0.60;;
78372;SDS011;67656;52.074;4.758;2024-01-15T12:32:49;4.97;;;0.60;;
78372;SDS011;67656;52.074;4.758;2024-01-15T12:37:53;2.90;;;0.50;;
78372;SDS011;67656;52.074;4.758;2024-01-15T12:42:54;2.50;;;0.50;;
78372;SDS011;67656;52.074;4.758;2024-01-15T12:48:04;1.80;;;0.60;;
78372;SDS011;67656;52.074;4.758;2024-01-15T12:53:22;2.13;;;0.53;;
78372;SDS011;67656;52.074;4.758;2024-01-15T12:58:29;7.90;;;0.63;;
78372;SDS011;67656;52.074;4.758;2024-01-15T13:03:29;1.93;;;0.63;;
78372;SDS011;67656;52.074;4.758;2024-01-15T13:08:30;6.83;;;0.77;;
78372;SDS011;67656;52.074;4.758;2024-01-15T13:13:30;4.83;;;0.77;;
78372;SDS011;67656;52.074;4.758;2024-01-15T13:18:30;5.77;;;0.80;;
78372;SDS011;67656;52.074;4.758;2024-01-15T13:23:31;2.00;;;0.57;;
78372;SDS011;67656;52.074;4.758;2024-01-15T13:28:31;3.20;;;0.57;;
78372;SDS011;67656;52.074;4.758;2024-01-15T13:33:33;0.77;;;0.30;;
78372;SDS011;67656;52.074;4.758;2024-01-15T13:38:33;2.10;;;0.47;;
78372;SDS011;67656;52.074;4.758;2024-01-15T13:43:34;3.67;;;0.50;;
78372;SDS011;67656;52.074;4.758;2024-01-15T13:48:35;2.93;;;0.47;;
78372;SDS011;67656;52.074;4.758;2024-01-15T13:53:35;4.10;;;1.30;;
78372;SDS011;67656;52.074;4.758;2024-01-15T13:58:37;7.10;;;1.37;;
78372;SDS011;67656;52.074;4.758;2024-01-15T14:03:38;3.37;;;1.03;;
78372;SDS011;67656;52.074;4.758;2024-01-15T14:08:38;8.63;;;1.10;;
78372;SDS011;67656;52.074;4.758;2024-01-15T14:13:38;6.43;;;1.53;;
78372;SDS011;67656;52.074;4.758;2024-01-15T14:18:39;6.43;;;1.20;;
78372;SDS011;67656;52.074;4.758;2024-01-15T14:23:39;7.57;;;0.73;;
78372;SDS011;67656;52.074;4.758;2024-01-15T14:28:40;2.83;;;0.60;;
78372;SDS011;67656;52.074;4.758;2024-01-15T14:33:40;3.20;;;0.60;;
78372;SDS011;67656;52.074;4.758;2024-01-15T14:38:40;1.83;;;0.70;;
78372;SDS011;67656;52.074;4.758;2024-01-15T14:43:41;3.30;;;0.90;;
78372;SDS011;67656;52.074;4.758;2024-01-15T14:48:41;7.03;;;0.80;;
78372;SDS011;67656;52.074;4.758;2024-01-15T14:53:42;4.17;;;0.90;;
78372;SDS011;67656;52.074;4.758;2024-01-15T14:58:42;3.03;;;0.53;;
78372;SDS011;67656;52.074;4.758;2024-01-15T15:03:43;1.47;;;0.30;;
78372;SDS011;67656;52.074;4.758;2024-01-15T15:08:43;6.17;;;1.00;;
78372;SDS011;67656;52.074;4.758;2024-01-15T15:13:43;2.70;;;0.80;;
78372;SDS011;67656;52.074;4.758;2024-01-15T15:18:44;11.07;;;1.10;;
78372;SDS011;67656;52.074;4.758;2024-01-15T15:23:44;4.23;;;0.70;;
78372;SDS011;67656;52.074;4.758;2024-01-15T15:28:45;4.93;;;0.90;;
78372;SDS011;67656;52.074;4.758;2024-01-15T15:33:45;9.27;;;0.80;;
78372;SDS011;67656;52.074;4.758;2024-01-15T15:38:45;1.47;;;0.63;;
78372;SDS011;67656;52.074;4.758;2024-01-15T15:43:46;3.37;;;0.90;;
78372;SDS011;67656;52.074;4.758;2024-01-15T15:48:46;2.87;;;0.67;;
78372;SDS011;67656;52.074;4.758;2024-01-15T15:53:47;2.23;;;0.30;;
78372;SDS011;67656;52.074;4.758;2024-01-15T15:58:47;1.67;;;0.50;;
78372;SDS011;67656;52.074;4.758;2024-01-15T16:03:48;3.60;;;0.70;;
78372;SDS011;67656;52.074;4.758;2024-01-15T16:08:48;4.77;;;1.07;;
78372;SDS011;67656;52.074;4.758;2024-01-15T16:13:49;9.80;;;1.87;;
78372;SDS011;67656;52.074;4.758;2024-01-15T16:18:49;7.90;;;1.00;;
78372;SDS011;67656;52.074;4.758;2024-01-15T16:23:51;7.70;;;2.27;;
78372;SDS011;67656;52.074;4.758;2024-01-15T16:28:52;10.10;;;3.60;;
78372;SDS011;67656;52.074;4.758;2024-01-15T16:33:53;15.47;;;9.13;;
78372;SDS011;67656;52.074;4.758;2024-01-15T16:38:53;6.00;;;2.47;;
78372;SDS011;67656;52.074;4.758;2024-01-15T16:43:54;12.10;;;3.30;;
78372;SDS011;67656;52.074;4.758;2024-01-15T16:48:54;5.17;;;1.60;;
78372;SDS011;67656;52.074;4.758;2024-01-15T16:53:55;7.43;;;2.60;;
78372;SDS011;67656;52.074;4.758;2024-01-15T16:58:55;5.10;;;1.57;;
78372;SDS011;67656;52.074;4.758;2024-01-15T17:03:56;7.13;;;1.30;;
78372;SDS011;67656;52.074;4.758;2024-01-15T17:08:56;17.10;;;1.50;;
78372;SDS011;67656;52.074;4.758;2024-01-15T17:13:56;7.07;;;1.47;;
78372;SDS011;67656;52.074;4.758;2024-01-15T17:18:57;10.67;;;1.40;;
78372;SDS011;67656;52.074;4.758;2024-01-15T17:23:57;8.27;;;1.50;;
78372;SDS011;67656;52.074;4.758;2024-01-15T17:28:58;11.73;;;2.70;;
78372;SDS011;67656;52.074;4.758;2024-01-15T17:33:58;8.03;;;2.50;;
78372;SDS011;67656;52.074;4.758;2024-01-15T17:38:59;5.93;;;1.93;;
78372;SDS011;67656;52.074;4.758;2024-01-15T17:44:01;8.87;;;2.20;;
78372;SDS011;67656;52.074;4.758;2024-01-15T17:49:01;9.80;;;1.80;;
78372;SDS011;67656;52.074;4.758;2024-01-15T17:54:01;3.33;;;1.50;;
78372;SDS011;67656;52.074;4.758;2024-01-15T17:59:02;18.17;;;2.23;;
78372;SDS011;67656;52.074;4.758;2024-01-15T18:04:02;11.90;;;1.90;;
78372;SDS011;67656;52.074;4.758;2024-01-15T18:09:03;5.63;;;1.43;;
78372;SDS011;67656;52.074;4.758;2024-01-15T18:14:03;9.73;;;2.90;;
78372;SDS011;67656;52.074;4.758;2024-01-15T18:19:04;4.40;;;1.00;;
78372;SDS011;67656;52.074;4.758;2024-01-15T18:24:04;13.53;;;4.13;;
78372;SDS011;67656;52.074;4.758;2024-01-15T18:29:05;5.60;;;1.77;;
78372;SDS011;67656;52.074;4.758;2024-01-15T18:34:05;4.23;;;1.97;;
78372;SDS011;67656;52.074;4.758;2024-01-15T18:39:06;8.17;;;2.50;;
78372;SDS011;67656;52.074;4.758;2024-01-15T18:44:06;8.50;;;2.53;;
78372;SDS011;67656;52.074;4.758;2024-01-15T18:49:06;6.10;;;3.10;;
78372;SDS011;67656;52.074;4.758;2024-01-15T18:54:07;7.07;;;2.20;;
78372;SDS011;67656;52.074;4.758;2024-01-15T18:59:07;12.33;;;5.17;;
78372;SDS011;67656;52.074;4.758;2024-01-15T19:04:08;9.60;;;2.67;;
78372;SDS011;67656;52.074;4.758;2024-01-15T19:09:08;7.67;;;2.77;;
78372;SDS011;67656;52.074;4.758;2024-01-15T19:14:12;10.73;;;4.53;;
78372;SDS011;67656;52.074;4.758;2024-01-15T19:19:12;6.47;;;2.00;;
78372;SDS011;67656;52.074;4.758;2024-01-15T19:24:13;7.80;;;1.67;;
78372;SDS011;67656;52.074;4.758;2024-01-15T19:29:13;25.67;;;7.67;;
78372;SDS011;67656;52.074;4.758;2024-01-15T19:34:13;65.73;;;21.67;;
78372;SDS011;67656;52.074;4.758;2024-01-15T19:39:14;32.10;;;9.33;;
78372;SDS011;67656;52.074;4.758;2024-01-15T19:44:14;12.87;;;4.60;;
78372;SDS011;67656;52.074;4.758;2024-01-15T19:49:15;10.00;;;3.13;;
78372;SDS011;67656;52.074;4.758;2024-01-15T19:54:15;5.97;;;1.73;;
78372;SDS011;67656;52.074;4.758;2024-01-15T19:59:16;5.37;;;1.30;;
78372;SDS011;67656;52.074;4.758;2024-01-15T20:04:16;2.13;;;1.13;;
78372;SDS011;67656;52.074;4.758;2024-01-15T20:09:16;2.77;;;1.07;;
78372;SDS011;67656;52.074;4.758;2024-01-15T20:14:17;10.50;;;2.87;;
78372;SDS011;67656;52.074;4.758;2024-01-15T20:19:17;14.60;;;3.20;;
78372;SDS011;67656;52.074;4.758;2024-01-15T20:24:18;6.33;;;1.90;;
78372;SDS011;67656;52.074;4.758;2024-01-15T20:29:18;0.90;;;0.50;;
78372;SDS011;67656;52.074;4.758;2024-01-15T20:34:19;0.70;;;0.23;;
78372;SDS011;67656;52.074;4.758;2024-01-15T20:39:19;3.93;;;0.87;;
78372;SDS011;67656;52.074;4.758;2024-01-15T20:44:21;4.30;;;0.73;;
78372;SDS011;67656;52.074;4.758;2024-01-15T20:49:21;1.03;;;0.60;;
78372;SDS011;67656;52.074;4.758;2024-01-15T20:54:22;6.27;;;1.13;;
78372;SDS011;67656;52.074;4.758;2024-01-15T20:59:22;4.97;;;1.40;;
78372;SDS011;67656;52.074;4.758;2024-01-15T21:04:23;2.37;;;1.10;;
78372;SDS011;67656;52.074;4.758;2024-01-15T21:09:23;4.67;;;1.73;;
78372;SDS011;67656;52.074;4.758;2024-01-15T21:14:24;10.77;;;2.97;;
78372;SDS011;67656;52.074;4.758;2024-01-15T21:19:24;6.70;;;1.50;;
78372;SDS011;67656;52.074;4.758;2024-01-15T21:24:24;21.10;;;7.40;;
78372;SDS011;67656;52.074;4.758;2024-01-15T21:29:25;3.17;;;1.30;;
78372;SDS011;67656;52.074;4.758;2024-01-15T21:34:25;5.50;;;2.20;;
78372;SDS011;67656;52.074;4.758;2024-01-15T21:39:26;5.80;;;1.30;;
78372;SDS011;67656;52.074;4.758;2024-01-15T21:44:26;4.73;;;1.00;;
78372;SDS011;67656;52.074;4.758;2024-01-15T21:49:27;8.43;;;1.20;;
78372;SDS011;67656;52.074;4.758;2024-01-15T21:54:27;4.73;;;1.00;;
78372;SDS011;67656;52.074;4.758;2024-01-15T21:59:27;4.27;;;1.20;;
78372;SDS011;67656;52.074;4.758;2024-01-15T22:04:28;4.43;;;1.10;;
78372;SDS011;67656;52.074;4.758;2024-01-15T22:09:28;6.50;;;1.27;;
78372;SDS011;67656;52.074;4.758;2024-01-15T22:14:28;9.87;;;1.50;;
78372;SDS011;67656;52.074;4.758;2024-01-15T22:19:29;4.23;;;1.20;;
78372;SDS011;67656;52.074;4.758;2024-01-15T22:24:29;5.60;;;1.00;;
78372;SDS011;67656;52.074;4.758;2024-01-15T22:29:29;6.57;;;1.57;;
78372;SDS011;67656;52.074;4.758;2024-01-15T22:34:30;7.73;;;1.50;;
78372;SDS011;67656;52.074;4.758;2024-01-15T22:39:30;8.00;;;1.50;;
78372;SDS011;67656;52.074;4.758;2024-01-15T22:44:30;1.97;;;0.60;;
78372;SDS011;67656;52.074;4.758;2024-01-15T22:49:31;2.13;;;0.50;;
78372;SDS011;67656;52.074;4.758;2024-01-15T22:54:31;5.27;;;0.63;;
78372;SDS011;67656;52.074;4.758;2024-01-15T22:59:31;5.07;;;0.60;;
78372;SDS011;67656;52.074;4.758;2024-01-15T23:04:32;0.77;;;0.30;;
78372;SDS011;67656;52.074;4.758;2024-01-15T23:09:32;5.40;;;0.60;;
78372;SDS011;67656;52.074;4.758;2024-01-15T23:14:36;1.20;;;0.30;;
78372;SDS011;67656;52.074;4.758;2024-01-15T23:19:36;1.70;;;0.50;;
78372;SDS011;67656;52.074;4.758;2024-01-15T23:24:37;3.77;;;0.70;;
78372;SDS011;67656;52.074;4.758;2024-01-15T23:29:37;4.30;;;0.50;;
78372;SDS011;67656;52.074;4.758;2024-01-15T23:34:38;6.77;;;0.67;;
78372;SDS011;67656;52.074;4.758;2024-01-15T23:39:38;5.43;;;0.83;;
78372;SDS011;67656;52.074;4.758;2024-01-15T23:44:38;7.03;;;0.80;;
78372;SDS011;67656;52.074;4.758;2024-01-15T23:49:39;5.17;;;0.87;;
78372;SDS011;67656;52.074;4.758;2024-01-15T23:54:39;5.70;;;0.60;;
78372;SDS011;67656;52.074;4.758;2024-01-15T23:59:39;3.83;;;0.60;;
